Terminal Aerodrome Forecast
Issued by NWS Pueblo, CO

Home | Current Version | Previous Version | Text Only | Print | Product List | Glossary On
Versions: 1 2 3 4 5 6 7 8 9 10 11 12 13 14 15 16 17 18 19 20 21 22 23 24 25 26 27 28 29 30 31 32 33 34 35 36 37 38 39 40 41 42 43 44
000
FTUS45 KPUB 281720
TAFPUB
TAF
KPUB 281720Z 2818/2918 08005KT P6SM SCT010 SCT150
     FM281900 12008KT P6SM FEW060 SCT150
     FM282200 11010KT P6SM VCTS SCT060CB BKN100
     FM290400 01010KT P6SM VCSH SCT015 SCT080 BKN120
     FM291200 04004KT 4SM BR VCSH SCT015 BKN060=

USA.gov is the U.S. government's official web portal to all federal, state and local government web resources and services.